sensor_id;sensor_type;location;lat;lon;timestamp;P1;durP1;ratioP1;P2;durP2;ratioP2
71464;SDS011;59274;49.874;9.154;2023-03-01T00:01:12;22.30;;;9.27;;
71464;SDS011;59274;49.874;9.154;2023-03-01T00:03:40;30.50;;;10.75;;
71464;SDS011;59274;49.874;9.154;2023-03-01T00:06:06;29.35;;;9.15;;
71464;SDS011;59274;49.874;9.154;2023-03-01T00:08:32;23.93;;;9.13;;
71464;SDS011;59274;49.874;9.154;2023-03-01T00:13:40;20.15;;;7.90;;
71464;SDS011;59274;49.874;9.154;2023-03-01T00:16:08;22.77;;;8.57;;
71464;SDS011;59274;49.874;9.154;2023-03-01T00:18:35;20.43;;;8.03;;
71464;SDS011;59274;49.874;9.154;2023-03-01T00:21:01;22.25;;;7.95;;
71464;SDS011;59274;49.874;9.154;2023-03-01T00:23:27;26.70;;;9.03;;
71464;SDS011;59274;49.874;9.154;2023-03-01T00:25:53;23.27;;;8.52;;
71464;SDS011;59274;49.874;9.154;2023-03-01T00:28:18;20.00;;;7.97;;
71464;SDS011;59274;49.874;9.154;2023-03-01T00:30:44;24.17;;;8.73;;
71464;SDS011;59274;49.874;9.154;2023-03-01T00:33:10;23.52;;;8.15;;
71464;SDS011;59274;49.874;9.154;2023-03-01T00:35:36;22.17;;;8.43;;
71464;SDS011;59274;49.874;9.154;2023-03-01T00:38:02;19.45;;;8.48;;
71464;SDS011;59274;49.874;9.154;2023-03-01T00:40:29;19.20;;;8.05;;
71464;SDS011;59274;49.874;9.154;2023-03-01T00:42:56;20.83;;;7.40;;
71464;SDS011;59274;49.874;9.154;2023-03-01T00:45:22;16.63;;;7.25;;
71464;SDS011;59274;49.874;9.154;2023-03-01T00:47:49;16.13;;;7.00;;
71464;SDS011;59274;49.874;9.154;2023-03-01T00:50:15;18.45;;;7.78;;
71464;SDS011;59274;49.874;9.154;2023-03-01T00:52:41;17.20;;;7.37;;
71464;SDS011;59274;49.874;9.154;2023-03-01T00:55:06;15.73;;;6.93;;
71464;SDS011;59274;49.874;9.154;2023-03-01T00:57:32;17.00;;;7.28;;
71464;SDS011;59274;49.874;9.154;2023-03-01T00:59:58;16.92;;;7.10;;
71464;SDS011;59274;49.874;9.154;2023-03-01T01:02:24;16.23;;;7.33;;
71464;SDS011;59274;49.874;9.154;2023-03-01T01:04:49;17.60;;;6.87;;
71464;SDS011;59274;49.874;9.154;2023-03-01T01:07:15;17.95;;;7.53;;
71464;SDS011;59274;49.874;9.154;2023-03-01T01:09:42;14.60;;;6.80;;
71464;SDS011;59274;49.874;9.154;2023-03-01T01:12:07;15.68;;;6.75;;
71464;SDS011;59274;49.874;9.154;2023-03-01T01:14:33;17.67;;;7.27;;
71464;SDS011;59274;49.874;9.154;2023-03-01T01:16:59;15.48;;;6.95;;
71464;SDS011;59274;49.874;9.154;2023-03-01T01:19:25;15.23;;;6.77;;
71464;SDS011;59274;49.874;9.154;2023-03-01T01:21:51;17.05;;;7.80;;
71464;SDS011;59274;49.874;9.154;2023-03-01T01:24:17;16.90;;;7.40;;
71464;SDS011;59274;49.874;9.154;2023-03-01T01:26:43;16.73;;;7.07;;
71464;SDS011;59274;49.874;9.154;2023-03-01T01:29:09;16.13;;;6.57;;
71464;SDS011;59274;49.874;9.154;2023-03-01T01:31:36;16.35;;;7.43;;
71464;SDS011;59274;49.874;9.154;2023-03-01T01:34:04;19.92;;;7.53;;
71464;SDS011;59274;49.874;9.154;2023-03-01T01:36:32;19.27;;;8.20;;
71464;SDS011;59274;49.874;9.154;2023-03-01T01:38:58;17.95;;;7.07;;
71464;SDS011;59274;49.874;9.154;2023-03-01T01:41:25;18.52;;;7.90;;
71464;SDS011;59274;49.874;9.154;2023-03-01T01:44:11;17.07;;;6.77;;
71464;SDS011;59274;49.874;9.154;2023-03-01T01:47:02;16.65;;;7.32;;
71464;SDS011;59274;49.874;9.154;2023-03-01T01:52:16;17.83;;;7.07;;
71464;SDS011;59274;49.874;9.154;2023-03-01T01:57:22;15.77;;;6.60;;
71464;SDS011;59274;49.874;9.154;2023-03-01T01:59:52;17.08;;;7.43;;
71464;SDS011;59274;49.874;9.154;2023-03-01T02:02:20;18.95;;;7.60;;
71464;SDS011;59274;49.874;9.154;2023-03-01T02:04:46;19.50;;;7.60;;
71464;SDS011;59274;49.874;9.154;2023-03-01T02:07:15;21.92;;;8.38;;
71464;SDS011;59274;49.874;9.154;2023-03-01T02:09:47;17.67;;;8.70;;
71464;SDS011;59274;49.874;9.154;2023-03-01T02:12:19;19.98;;;8.88;;
71464;SDS011;59274;49.874;9.154;2023-03-01T02:14:47;18.75;;;7.68;;
71464;SDS011;59274;49.874;9.154;2023-03-01T02:17:14;16.57;;;6.83;;
71464;SDS011;59274;49.874;9.154;2023-03-01T02:22:37;15.53;;;7.00;;
71464;SDS011;59274;49.874;9.154;2023-03-01T02:30:12;19.05;;;7.68;;
71464;SDS011;59274;49.874;9.154;2023-03-01T02:32:41;21.20;;;7.73;;
71464;SDS011;59274;49.874;9.154;2023-03-01T02:35:10;15.10;;;6.78;;
71464;SDS011;59274;49.874;9.154;2023-03-01T02:37:39;16.13;;;6.97;;
71464;SDS011;59274;49.874;9.154;2023-03-01T02:40:07;20.65;;;8.02;;
71464;SDS011;59274;49.874;9.154;2023-03-01T02:42:38;18.60;;;7.17;;
71464;SDS011;59274;49.874;9.154;2023-03-01T02:45:13;20.33;;;7.47;;
71464;SDS011;59274;49.874;9.154;2023-03-01T02:47:39;18.42;;;7.30;;
71464;SDS011;59274;49.874;9.154;2023-03-01T02:50:51;16.88;;;6.50;;
71464;SDS011;59274;49.874;9.154;2023-03-01T02:55:54;15.30;;;6.68;;
71464;SDS011;59274;49.874;9.154;2023-03-01T02:58:20;15.80;;;6.40;;
71464;SDS011;59274;49.874;9.154;2023-03-01T03:00:46;16.60;;;6.83;;
71464;SDS011;59274;49.874;9.154;2023-03-01T03:03:14;18.80;;;7.30;;
71464;SDS011;59274;49.874;9.154;2023-03-01T03:05:41;15.90;;;7.10;;
71464;SDS011;59274;49.874;9.154;2023-03-01T03:08:07;18.53;;;6.70;;
71464;SDS011;59274;49.874;9.154;2023-03-01T03:10:34;19.13;;;7.60;;
71464;SDS011;59274;49.874;9.154;2023-03-01T03:13:03;17.77;;;7.00;;
71464;SDS011;59274;49.874;9.154;2023-03-01T03:15:30;17.45;;;7.60;;
71464;SDS011;59274;49.874;9.154;2023-03-01T03:17:56;18.60;;;7.57;;
71464;SDS011;59274;49.874;9.154;2023-03-01T03:20:23;17.77;;;7.05;;
71464;SDS011;59274;49.874;9.154;2023-03-01T03:22:52;16.63;;;6.72;;
71464;SDS011;59274;49.874;9.154;2023-03-01T03:25:19;19.50;;;7.90;;
71464;SDS011;59274;49.874;9.154;2023-03-01T03:27:47;19.27;;;7.20;;
71464;SDS011;59274;49.874;9.154;2023-03-01T03:30:15;18.80;;;7.80;;
71464;SDS011;59274;49.874;9.154;2023-03-01T03:32:42;21.10;;;8.85;;
71464;SDS011;59274;49.874;9.154;2023-03-01T03:35:18;23.23;;;8.02;;
71464;SDS011;59274;49.874;9.154;2023-03-01T03:37:49;19.90;;;8.02;;
71464;SDS011;59274;49.874;9.154;2023-03-01T03:40:35;19.63;;;8.20;;
71464;SDS011;59274;49.874;9.154;2023-03-01T03:43:03;19.90;;;8.38;;
71464;SDS011;59274;49.874;9.154;2023-03-01T03:45:30;23.20;;;8.35;;
71464;SDS011;59274;49.874;9.154;2023-03-01T03:47:58;19.17;;;9.05;;
71464;SDS011;59274;49.874;9.154;2023-03-01T03:50:24;20.00;;;8.35;;
71464;SDS011;59274;49.874;9.154;2023-03-01T03:52:49;20.70;;;9.03;;
71464;SDS011;59274;49.874;9.154;2023-03-01T03:55:15;19.17;;;8.10;;
71464;SDS011;59274;49.874;9.154;2023-03-01T03:57:44;19.20;;;7.60;;
71464;SDS011;59274;49.874;9.154;2023-03-01T04:00:18;18.90;;;7.38;;
71464;SDS011;59274;49.874;9.154;2023-03-01T04:02:46;18.73;;;8.00;;
71464;SDS011;59274;49.874;9.154;2023-03-01T04:05:13;21.00;;;8.73;;
71464;SDS011;59274;49.874;9.154;2023-03-01T04:07:40;19.75;;;8.52;;
71464;SDS011;59274;49.874;9.154;2023-03-01T04:10:11;20.70;;;9.05;;
71464;SDS011;59274;49.874;9.154;2023-03-01T04:12:38;21.90;;;8.23;;
71464;SDS011;59274;49.874;9.154;2023-03-01T04:15:05;22.87;;;9.07;;
71464;SDS011;59274;49.874;9.154;2023-03-01T04:17:47;19.30;;;8.18;;
71464;SDS011;59274;49.874;9.154;2023-03-01T04:20:16;17.97;;;8.30;;
71464;SDS011;59274;49.874;9.154;2023-03-01T04:22:49;20.77;;;8.68;;
71464;SDS011;59274;49.874;9.154;2023-03-01T04:25:22;22.65;;;9.13;;
71464;SDS011;59274;49.874;9.154;2023-03-01T04:27:49;19.38;;;9.10;;
71464;SDS011;59274;49.874;9.154;2023-03-01T04:30:15;24.33;;;9.82;;
71464;SDS011;59274;49.874;9.154;2023-03-01T04:32:40;22.27;;;9.63;;
71464;SDS011;59274;49.874;9.154;2023-03-01T04:35:06;21.13;;;9.70;;
71464;SDS011;59274;49.874;9.154;2023-03-01T04:37:32;20.73;;;8.88;;
71464;SDS011;59274;49.874;9.154;2023-03-01T04:39:57;24.47;;;9.43;;
71464;SDS011;59274;49.874;9.154;2023-03-01T04:42:23;18.40;;;8.73;;
71464;SDS011;59274;49.874;9.154;2023-03-01T04:44:48;21.13;;;9.93;;
71464;SDS011;59274;49.874;9.154;2023-03-01T04:47:16;20.52;;;9.50;;
71464;SDS011;59274;49.874;9.154;2023-03-01T04:49:42;24.02;;;9.75;;
71464;SDS011;59274;49.874;9.154;2023-03-01T04:52:07;25.53;;;10.60;;
71464;SDS011;59274;49.874;9.154;2023-03-01T04:54:34;21.80;;;9.35;;
71464;SDS011;59274;49.874;9.154;2023-03-01T04:57:01;22.23;;;9.38;;
71464;SDS011;59274;49.874;9.154;2023-03-01T04:59:27;23.88;;;10.45;;
71464;SDS011;59274;49.874;9.154;2023-03-01T05:01:53;21.80;;;9.30;;
71464;SDS011;59274;49.874;9.154;2023-03-01T05:04:25;22.48;;;9.13;;
71464;SDS011;59274;49.874;9.154;2023-03-01T05:06:51;21.13;;;9.83;;
71464;SDS011;59274;49.874;9.154;2023-03-01T05:09:18;21.52;;;9.27;;
71464;SDS011;59274;49.874;9.154;2023-03-01T05:11:44;22.63;;;9.18;;
71464;SDS011;59274;49.874;9.154;2023-03-01T05:14:10;20.70;;;9.30;;
71464;SDS011;59274;49.874;9.154;2023-03-01T05:16:35;23.23;;;9.40;;
71464;SDS011;59274;49.874;9.154;2023-03-01T05:19:02;20.63;;;9.43;;
71464;SDS011;59274;49.874;9.154;2023-03-01T05:21:39;20.95;;;9.10;;
71464;SDS011;59274;49.874;9.154;2023-03-01T05:24:23;22.55;;;9.75;;
71464;SDS011;59274;49.874;9.154;2023-03-01T05:26:49;23.02;;;10.10;;
71464;SDS011;59274;49.874;9.154;2023-03-01T05:29:17;25.48;;;11.13;;
71464;SDS011;59274;49.874;9.154;2023-03-01T05:31:43;38.80;;;18.40;;
71464;SDS011;59274;49.874;9.154;2023-03-01T05:34:08;47.50;;;23.80;;
71464;SDS011;59274;49.874;9.154;2023-03-01T05:36:34;33.33;;;15.17;;
71464;SDS011;59274;49.874;9.154;2023-03-01T05:38:59;22.30;;;9.13;;
71464;SDS011;59274;49.874;9.154;2023-03-01T05:41:25;26.00;;;10.40;;
71464;SDS011;59274;49.874;9.154;2023-03-01T05:43:50;24.90;;;11.00;;
71464;SDS011;59274;49.874;9.154;2023-03-01T05:46:15;26.05;;;10.27;;
71464;SDS011;59274;49.874;9.154;2023-03-01T05:48:41;26.37;;;9.67;;
71464;SDS011;59274;49.874;9.154;2023-03-01T05:51:06;22.90;;;10.47;;
71464;SDS011;59274;49.874;9.154;2023-03-01T05:53:32;21.10;;;9.27;;
71464;SDS011;59274;49.874;9.154;2023-03-01T05:55:57;22.67;;;9.38;;
71464;SDS011;59274;49.874;9.154;2023-03-01T05:58:23;23.70;;;9.93;;
71464;SDS011;59274;49.874;9.154;2023-03-01T06:00:49;24.42;;;10.70;;
71464;SDS011;59274;49.874;9.154;2023-03-01T06:03:15;25.83;;;9.60;;
71464;SDS011;59274;49.874;9.154;2023-03-01T06:05:42;19.73;;;9.20;;
71464;SDS011;59274;49.874;9.154;2023-03-01T06:08:09;24.98;;;10.48;;
71464;SDS011;59274;49.874;9.154;2023-03-01T06:10:35;22.42;;;9.13;;
71464;SDS011;59274;49.874;9.154;2023-03-01T06:13:00;23.63;;;9.30;;
71464;SDS011;59274;49.874;9.154;2023-03-01T06:15:26;23.13;;;9.90;;
71464;SDS011;59274;49.874;9.154;2023-03-01T06:17:52;20.33;;;9.23;;
71464;SDS011;59274;49.874;9.154;2023-03-01T06:20:21;23.50;;;9.70;;
71464;SDS011;59274;49.874;9.154;2023-03-01T06:22:48;22.10;;;9.70;;
71464;SDS011;59274;49.874;9.154;2023-03-01T06:25:15;23.52;;;10.05;;
71464;SDS011;59274;49.874;9.154;2023-03-01T06:27:43;21.77;;;10.05;;
71464;SDS011;59274;49.874;9.154;2023-03-01T06:30:09;23.75;;;9.82;;
71464;SDS011;59274;49.874;9.154;2023-03-01T06:32:37;20.80;;;10.10;;
71464;SDS011;59274;49.874;9.154;2023-03-01T06:35:07;24.63;;;9.88;;
71464;SDS011;59274;49.874;9.154;2023-03-01T06:37:33;21.95;;;9.13;;
71464;SDS011;59274;49.874;9.154;2023-03-01T06:40:00;23.98;;;9.57;;
71464;SDS011;59274;49.874;9.154;2023-03-01T06:42:29;25.40;;;10.98;;
71464;SDS011;59274;49.874;9.154;2023-03-01T06:44:55;23.67;;;10.37;;
71464;SDS011;59274;49.874;9.154;2023-03-01T06:47:20;41.77;;;15.60;;
71464;SDS011;59274;49.874;9.154;2023-03-01T06:49:45;30.73;;;12.30;;
71464;SDS011;59274;49.874;9.154;2023-03-01T06:52:11;26.80;;;11.50;;
71464;SDS011;59274;49.874;9.154;2023-03-01T06:54:36;23.80;;;10.37;;
71464;SDS011;59274;49.874;9.154;2023-03-01T06:57:02;25.60;;;11.15;;
71464;SDS011;59274;49.874;9.154;2023-03-01T06:59:27;22.83;;;9.50;;
71464;SDS011;59274;49.874;9.154;2023-03-01T07:01:53;24.43;;;11.30;;
71464;SDS011;59274;49.874;9.154;2023-03-01T07:04:18;24.30;;;10.20;;
71464;SDS011;59274;49.874;9.154;2023-03-01T07:06:43;22.73;;;9.53;;
71464;SDS011;59274;49.874;9.154;2023-03-01T07:09:09;20.95;;;9.38;;
71464;SDS011;59274;49.874;9.154;2023-03-01T07:11:34;21.47;;;9.90;;
71464;SDS011;59274;49.874;9.154;2023-03-01T07:14:00;20.50;;;9.87;;
71464;SDS011;59274;49.874;9.154;2023-03-01T07:16:25;25.87;;;9.90;;
71464;SDS011;59274;49.874;9.154;2023-03-01T07:18:51;25.47;;;10.20;;
71464;SDS011;59274;49.874;9.154;2023-03-01T07:21:16;23.85;;;10.80;;
71464;SDS011;59274;49.874;9.154;2023-03-01T07:23:42;23.37;;;10.53;;
71464;SDS011;59274;49.874;9.154;2023-03-01T07:26:08;24.13;;;10.60;;
71464;SDS011;59274;49.874;9.154;2023-03-01T07:28:33;28.03;;;11.23;;
71464;SDS011;59274;49.874;9.154;2023-03-01T07:31:04;25.88;;;10.48;;
71464;SDS011;59274;49.874;9.154;2023-03-01T07:33:31;26.38;;;11.00;;
71464;SDS011;59274;49.874;9.154;2023-03-01T07:35:58;28.95;;;11.48;;
71464;SDS011;59274;49.874;9.154;2023-03-01T07:38:27;33.03;;;11.80;;
71464;SDS011;59274;49.874;9.154;2023-03-01T07:40:57;22.40;;;9.80;;
71464;SDS011;59274;49.874;9.154;2023-03-01T07:43:27;21.38;;;11.15;;
71464;SDS011;59274;49.874;9.154;2023-03-01T07:45:53;45.58;;;27.13;;
71464;SDS011;59274;49.874;9.154;2023-03-01T07:48:19;20.03;;;9.93;;
71464;SDS011;59274;49.874;9.154;2023-03-01T07:50:44;19.50;;;9.17;;
71464;SDS011;59274;49.874;9.154;2023-03-01T07:53:09;23.63;;;11.90;;
71464;SDS011;59274;49.874;9.154;2023-03-01T07:55:35;25.08;;;11.50;;
71464;SDS011;59274;49.874;9.154;2023-03-01T07:58:01;21.00;;;9.30;;
71464;SDS011;59274;49.874;9.154;2023-03-01T08:00:26;21.95;;;9.52;;
71464;SDS011;59274;49.874;9.154;2023-03-01T08:02:52;20.87;;;9.87;;
71464;SDS011;59274;49.874;9.154;2023-03-01T08:05:18;19.30;;;9.03;;
71464;SDS011;59274;49.874;9.154;2023-03-01T08:07:43;20.73;;;9.77;;
71464;SDS011;59274;49.874;9.154;2023-03-01T08:10:09;18.30;;;8.13;;
71464;SDS011;59274;49.874;9.154;2023-03-01T08:12:35;21.20;;;8.97;;
71464;SDS011;59274;49.874;9.154;2023-03-01T08:15:00;17.08;;;8.52;;
71464;SDS011;59274;49.874;9.154;2023-03-01T08:17:26;19.23;;;9.30;;
71464;SDS011;59274;49.874;9.154;2023-03-01T08:19:51;20.57;;;9.73;;
71464;SDS011;59274;49.874;9.154;2023-03-01T08:22:17;18.63;;;9.43;;
71464;SDS011;59274;49.874;9.154;2023-03-01T08:24:42;24.57;;;14.37;;
71464;SDS011;59274;49.874;9.154;2023-03-01T08:27:08;22.00;;;9.63;;
71464;SDS011;59274;49.874;9.154;2023-03-01T08:29:33;18.83;;;8.60;;
71464;SDS011;59274;49.874;9.154;2023-03-01T08:31:59;18.35;;;8.80;;
71464;SDS011;59274;49.874;9.154;2023-03-01T08:34:25;20.30;;;9.37;;
71464;SDS011;59274;49.874;9.154;2023-03-01T08:36:51;19.00;;;9.48;;
71464;SDS011;59274;49.874;9.154;2023-03-01T08:39:17;19.42;;;9.02;;
71464;SDS011;59274;49.874;9.154;2023-03-01T08:41:44;17.67;;;8.70;;
71464;SDS011;59274;49.874;9.154;2023-03-01T08:44:11;18.33;;;9.13;;
71464;SDS011;59274;49.874;9.154;2023-03-01T08:46:39;21.25;;;9.07;;
71464;SDS011;59274;49.874;9.154;2023-03-01T08:49:11;17.63;;;8.63;;
71464;SDS011;59274;49.874;9.154;2023-03-01T08:51:38;19.75;;;8.75;;
71464;SDS011;59274;49.874;9.154;2023-03-01T08:54:04;18.37;;;8.70;;
71464;SDS011;59274;49.874;9.154;2023-03-01T08:56:31;19.95;;;9.63;;
71464;SDS011;59274;49.874;9.154;2023-03-01T08:58:56;22.48;;;9.70;;
71464;SDS011;59274;49.874;9.154;2023-03-01T09:01:22;19.83;;;9.40;;
71464;SDS011;59274;49.874;9.154;2023-03-01T09:03:47;16.70;;;7.90;;
71464;SDS011;59274;49.874;9.154;2023-03-01T09:06:13;23.47;;;10.33;;
71464;SDS011;59274;49.874;9.154;2023-03-01T09:08:42;26.27;;;10.82;;
71464;SDS011;59274;49.874;9.154;2023-03-01T09:11:11;29.58;;;12.80;;
71464;SDS011;59274;49.874;9.154;2023-03-01T09:13:38;24.70;;;10.32;;
71464;SDS011;59274;49.874;9.154;2023-03-01T09:16:04;23.77;;;10.40;;
71464;SDS011;59274;49.874;9.154;2023-03-01T09:18:31;20.00;;;9.13;;
71464;SDS011;59274;49.874;9.154;2023-03-01T09:21:02;26.02;;;9.73;;
71464;SDS011;59274;49.874;9.154;2023-03-01T09:23:36;21.05;;;9.40;;
71464;SDS011;59274;49.874;9.154;2023-03-01T09:26:04;19.47;;;9.47;;
71464;SDS011;59274;49.874;9.154;2023-03-01T09:28:31;18.35;;;9.00;;
71464;SDS011;59274;49.874;9.154;2023-03-01T09:31:00;18.50;;;9.48;;
71464;SDS011;59274;49.874;9.154;2023-03-01T09:33:27;20.33;;;9.57;;
71464;SDS011;59274;49.874;9.154;2023-03-01T09:36:00;20.15;;;9.05;;
71464;SDS011;59274;49.874;9.154;2023-03-01T09:38:27;19.75;;;9.15;;
71464;SDS011;59274;49.874;9.154;2023-03-01T09:40:53;20.30;;;9.40;;
71464;SDS011;59274;49.874;9.154;2023-03-01T09:45:58;18.25;;;8.40;;
71464;SDS011;59274;49.874;9.154;2023-03-01T09:48:28;23.42;;;9.70;;
71464;SDS011;59274;49.874;9.154;2023-03-01T09:51:02;20.17;;;8.57;;
71464;SDS011;59274;49.874;9.154;2023-03-01T09:53:37;22.67;;;11.05;;
71464;SDS011;59274;49.874;9.154;2023-03-01T09:56:10;18.60;;;9.13;;
71464;SDS011;59274;49.874;9.154;2023-03-01T10:01:40;18.95;;;8.60;;
71464;SDS011;59274;49.874;9.154;2023-03-01T10:04:47;21.70;;;9.27;;
71464;SDS011;59274;49.874;9.154;2023-03-01T10:07:31;19.08;;;9.75;;
71464;SDS011;59274;49.874;9.154;2023-03-01T10:09:57;23.07;;;7.93;;
71464;SDS011;59274;49.874;9.154;2023-03-01T10:12:25;17.30;;;7.95;;
71464;SDS011;59274;49.874;9.154;2023-03-01T10:14:59;18.00;;;9.33;;
71464;SDS011;59274;49.874;9.154;2023-03-01T10:17:33;20.33;;;9.95;;
71464;SDS011;59274;49.874;9.154;2023-03-01T10:22:49;17.08;;;8.18;;
71464;SDS011;59274;49.874;9.154;2023-03-01T10:28:41;17.10;;;8.43;;
71464;SDS011;59274;49.874;9.154;2023-03-01T10:31:18;20.73;;;8.60;;
71464;SDS011;59274;49.874;9.154;2023-03-01T10:33:54;17.48;;;8.57;;
71464;SDS011;59274;49.874;9.154;2023-03-01T10:36:22;18.35;;;8.80;;
71464;SDS011;59274;49.874;9.154;2023-03-01T10:41:22;23.03;;;9.13;;
71464;SDS011;59274;49.874;9.154;2023-03-01T10:43:50;18.85;;;8.93;;
71464;SDS011;59274;49.874;9.154;2023-03-01T10:46:27;16.88;;;8.20;;
71464;SDS011;59274;49.874;9.154;2023-03-01T10:51:50;17.75;;;8.13;;
71464;SDS011;59274;49.874;9.154;2023-03-01T10:56:46;17.52;;;9.02;;
71464;SDS011;59274;49.874;9.154;2023-03-01T10:59:22;19.73;;;9.60;;
71464;SDS011;59274;49.874;9.154;2023-03-01T11:02:26;19.20;;;8.98;;
71464;SDS011;59274;49.874;9.154;2023-03-01T11:07:55;17.27;;;9.43;;
71464;SDS011;59274;49.874;9.154;2023-03-01T11:10:26;17.63;;;9.00;;
71464;SDS011;59274;49.874;9.154;2023-03-01T11:12:53;17.90;;;7.82;;
71464;SDS011;59274;49.874;9.154;2023-03-01T11:15:32;21.58;;;12.60;;
71464;SDS011;59274;49.874;9.154;2023-03-01T11:17:57;17.47;;;8.27;;
71464;SDS011;59274;49.874;9.154;2023-03-01T11:20:35;14.10;;;7.60;;
71464;SDS011;59274;49.874;9.154;2023-03-01T11:23:03;26.60;;;9.85;;
71464;SDS011;59274;49.874;9.154;2023-03-01T11:25:37;16.85;;;7.88;;
71464;SDS011;59274;49.874;9.154;2023-03-01T11:28:06;17.15;;;7.78;;
71464;SDS011;59274;49.874;9.154;2023-03-01T11:30:39;20.13;;;8.02;;
71464;SDS011;59274;49.874;9.154;2023-03-01T11:33:16;14.87;;;7.60;;
71464;SDS011;59274;49.874;9.154;2023-03-01T11:36:05;15.15;;;7.28;;
71464;SDS011;59274;49.874;9.154;2023-03-01T11:38:36;13.98;;;6.65;;
71464;SDS011;59274;49.874;9.154;2023-03-01T11:41:07;17.15;;;8.60;;
71464;SDS011;59274;49.874;9.154;2023-03-01T12:03:00;19.95;;;7.75;;
71464;SDS011;59274;49.874;9.154;2023-03-01T12:26:57;15.03;;;7.23;;
71464;SDS011;59274;49.874;9.154;2023-03-01T12:29:59;14.00;;;7.10;;
71464;SDS011;59274;49.874;9.154;2023-03-01T12:46:20;15.15;;;7.15;;
71464;SDS011;59274;49.874;9.154;2023-03-01T12:51:30;19.83;;;7.80;;
71464;SDS011;59274;49.874;9.154;2023-03-01T12:53:59;14.07;;;7.27;;
71464;SDS011;59274;49.874;9.154;2023-03-01T12:56:32;14.40;;;6.85;;
71464;SDS011;59274;49.874;9.154;2023-03-01T12:59:17;13.90;;;7.22;;
71464;SDS011;59274;49.874;9.154;2023-03-01T13:04:35;15.55;;;7.90;;
71464;SDS011;59274;49.874;9.154;2023-03-01T13:17:56;14.15;;;6.80;;
71464;SDS011;59274;49.874;9.154;2023-03-01T13:21:06;13.43;;;6.63;;
71464;SDS011;59274;49.874;9.154;2023-03-01T13:31:09;14.35;;;7.05;;
71464;SDS011;59274;49.874;9.154;2023-03-01T13:33:57;14.37;;;7.07;;
71464;SDS011;59274;49.874;9.154;2023-03-01T13:46:49;17.15;;;8.25;;
71464;SDS011;59274;49.874;9.154;2023-03-01T13:52:48;13.17;;;7.07;;
71464;SDS011;59274;49.874;9.154;2023-03-01T13:57:56;11.73;;;6.57;;
71464;SDS011;59274;49.874;9.154;2023-03-01T14:00:28;12.35;;;7.28;;
71464;SDS011;59274;49.874;9.154;2023-03-01T14:03:02;13.77;;;6.80;;
71464;SDS011;59274;49.874;9.154;2023-03-01T14:05:29;13.60;;;6.77;;
71464;SDS011;59274;49.874;9.154;2023-03-01T14:07:55;12.90;;;6.75;;
71464;SDS011;59274;49.874;9.154;2023-03-01T14:10:20;11.70;;;6.43;;
71464;SDS011;59274;49.874;9.154;2023-03-01T14:12:54;12.25;;;6.20;;
71464;SDS011;59274;49.874;9.154;2023-03-01T14:16:08;14.52;;;7.15;;
71464;SDS011;59274;49.874;9.154;2023-03-01T14:21:44;12.30;;;6.22;;
71464;SDS011;59274;49.874;9.154;2023-03-01T14:24:16;12.43;;;6.20;;
71464;SDS011;59274;49.874;9.154;2023-03-01T14:26:43;13.43;;;6.22;;
71464;SDS011;59274;49.874;9.154;2023-03-01T14:29:23;12.52;;;6.00;;
71464;SDS011;59274;49.874;9.154;2023-03-01T14:31:53;12.17;;;6.23;;
71464;SDS011;59274;49.874;9.154;2023-03-01T14:34:20;13.52;;;6.88;;
71464;SDS011;59274;49.874;9.154;2023-03-01T14:36:47;12.55;;;6.70;;
71464;SDS011;59274;49.874;9.154;2023-03-01T14:39:16;12.43;;;6.10;;
71464;SDS011;59274;49.874;9.154;2023-03-01T14:41:43;12.70;;;6.30;;
71464;SDS011;59274;49.874;9.154;2023-03-01T14:44:12;12.93;;;6.27;;
71464;SDS011;59274;49.874;9.154;2023-03-01T14:46:45;12.43;;;6.47;;
71464;SDS011;59274;49.874;9.154;2023-03-01T14:51:41;14.10;;;6.30;;
71464;SDS011;59274;49.874;9.154;2023-03-01T14:54:20;12.80;;;6.03;;
71464;SDS011;59274;49.874;9.154;2023-03-01T14:56:49;12.40;;;6.03;;
71464;SDS011;59274;49.874;9.154;2023-03-01T14:59:15;13.32;;;6.10;;
71464;SDS011;59274;49.874;9.154;2023-03-01T15:01:46;13.05;;;6.60;;
71464;SDS011;59274;49.874;9.154;2023-03-01T15:04:12;12.37;;;6.70;;
71464;SDS011;59274;49.874;9.154;2023-03-01T15:06:38;11.63;;;6.85;;
71464;SDS011;59274;49.874;9.154;2023-03-01T15:09:04;12.02;;;6.38;;
71464;SDS011;59274;49.874;9.154;2023-03-01T15:11:32;11.80;;;6.07;;
71464;SDS011;59274;49.874;9.154;2023-03-01T15:13:59;11.70;;;6.37;;
71464;SDS011;59274;49.874;9.154;2023-03-01T15:18:59;12.18;;;6.85;;
71464;SDS011;59274;49.874;9.154;2023-03-01T15:21:36;12.20;;;6.30;;
71464;SDS011;59274;49.874;9.154;2023-03-01T15:24:08;13.43;;;6.53;;
71464;SDS011;59274;49.874;9.154;2023-03-01T15:26:55;11.50;;;6.30;;
71464;SDS011;59274;49.874;9.154;2023-03-01T15:29:27;12.52;;;6.53;;
71464;SDS011;59274;49.874;9.154;2023-03-01T15:31:59;18.50;;;9.27;;
71464;SDS011;59274;49.874;9.154;2023-03-01T15:34:30;13.05;;;6.90;;
71464;SDS011;59274;49.874;9.154;2023-03-01T15:37:02;13.60;;;7.47;;
71464;SDS011;59274;49.874;9.154;2023-03-01T15:39:32;16.60;;;8.10;;
71464;SDS011;59274;49.874;9.154;2023-03-01T15:47:52;12.65;;;7.18;;
71464;SDS011;59274;49.874;9.154;2023-03-01T15:50:26;12.18;;;6.60;;
71464;SDS011;59274;49.874;9.154;2023-03-01T15:52:54;10.57;;;5.72;;
71464;SDS011;59274;49.874;9.154;2023-03-01T15:55:28;12.68;;;6.70;;
71464;SDS011;59274;49.874;9.154;2023-03-01T15:58:17;12.95;;;6.57;;
71464;SDS011;59274;49.874;9.154;2023-03-01T16:00:45;11.95;;;6.88;;
71464;SDS011;59274;49.874;9.154;2023-03-01T16:03:14;10.75;;;6.03;;
71464;SDS011;59274;49.874;9.154;2023-03-01T16:05:46;13.37;;;6.17;;
71464;SDS011;59274;49.874;9.154;2023-03-01T16:08:13;10.35;;;5.60;;
71464;SDS011;59274;49.874;9.154;2023-03-01T16:10:39;11.80;;;5.70;;
71464;SDS011;59274;49.874;9.154;2023-03-01T16:13:09;12.10;;;4.95;;
71464;SDS011;59274;49.874;9.154;2023-03-01T16:15:35;12.10;;;5.70;;
71464;SDS011;59274;49.874;9.154;2023-03-01T16:18:01;11.73;;;5.40;;
71464;SDS011;59274;49.874;9.154;2023-03-01T16:20:27;11.13;;;5.65;;
71464;SDS011;59274;49.874;9.154;2023-03-01T16:22:54;11.23;;;5.75;;
71464;SDS011;59274;49.874;9.154;2023-03-01T16:25:23;10.53;;;4.80;;
71464;SDS011;59274;49.874;9.154;2023-03-01T16:27:49;11.52;;;5.40;;
71464;SDS011;59274;49.874;9.154;2023-03-01T16:30:16;10.53;;;5.23;;
71464;SDS011;59274;49.874;9.154;2023-03-01T16:32:44;11.55;;;5.18;;
71464;SDS011;59274;49.874;9.154;2023-03-01T16:35:12;13.82;;;5.40;;
71464;SDS011;59274;49.874;9.154;2023-03-01T16:37:40;16.58;;;6.60;;
71464;SDS011;59274;49.874;9.154;2023-03-01T16:40:07;11.00;;;6.18;;
71464;SDS011;59274;49.874;9.154;2023-03-01T16:42:47;12.13;;;5.93;;
71464;SDS011;59274;49.874;9.154;2023-03-01T16:45:13;12.85;;;5.90;;
71464;SDS011;59274;49.874;9.154;2023-03-01T16:47:38;16.38;;;6.38;;
71464;SDS011;59274;49.874;9.154;2023-03-01T16:50:04;15.77;;;6.73;;
71464;SDS011;59274;49.874;9.154;2023-03-01T16:52:30;10.57;;;5.53;;
71464;SDS011;59274;49.874;9.154;2023-03-01T16:54:55;12.23;;;5.70;;
71464;SDS011;59274;49.874;9.154;2023-03-01T16:57:22;13.00;;;7.07;;
71464;SDS011;59274;49.874;9.154;2023-03-01T16:59:50;11.70;;;5.73;;
71464;SDS011;59274;49.874;9.154;2023-03-01T17:02:19;11.93;;;6.07;;
71464;SDS011;59274;49.874;9.154;2023-03-01T17:04:45;12.73;;;6.57;;
71464;SDS011;59274;49.874;9.154;2023-03-01T17:07:17;11.10;;;5.37;;
71464;SDS011;59274;49.874;9.154;2023-03-01T17:09:42;12.35;;;5.53;;
71464;SDS011;59274;49.874;9.154;2023-03-01T17:12:08;13.17;;;5.97;;
71464;SDS011;59274;49.874;9.154;2023-03-01T17:14:34;12.83;;;6.23;;